Time;durP1;ratioP1;P1;durP2;ratioP2;P2;SDS_P1;SDS_P2;PMS_P1;PMS_P2;Temp;Humidity;BMP_temperature;BMP_pressure;BME280_temperature;BME280_humidity;BME280_pressure;Samples;Min_cycle;Max_cycle;Signal;HPM_P1;HPM_P2
2024/03/22 00:00:42;;;;;;;33.70;21.80;;;;;;;5.87;82.63;101559.80;104646;1258;74751;-64
2024/03/22 00:03:29;;;;;;;35.20;22.90;;;;;;;5.88;82.65;101559.36;104605;1258;140209;-67
2024/03/22 00:05:56;;;;;;;50.20;30.40;;;;;;;5.90;82.69;101556.69;104643;1264;73596;-67
2024/03/22 00:08:22;;;;;;;45.00;28.20;;;;;;;5.90;82.60;101552.01;104658;1264;62183;-66
2024/03/22 00:10:49;;;;;;;40.60;26.40;;;;;;;5.91;82.77;101544.05;104779;1259;138793;-67
2024/03/22 00:13:16;;;;;;;39.60;25.50;;;;;;;5.94;82.82;101539.66;104637;1263;74986;-65
2024/03/22 00:15:44;;;;;;;36.30;24.10;;;;;;;5.93;82.61;101538.73;104775;1266;141355;-65
2024/03/22 00:18:11;;;;;;;37.60;22.80;;;;;;;5.90;82.63;101538.08;104836;1257;73136;-65
2024/03/22 00:20:37;;;;;;;37.20;23.40;;;;;;;5.89;82.67;101530.16;104833;1261;62026;-66
2024/03/22 00:23:04;;;;;;;36.10;23.90;;;;;;;5.86;82.57;101529.33;104692;1260;138892;-66
2024/03/22 00:25:31;;;;;;;33.60;23.70;;;;;;;5.84;82.67;101523.61;104873;1258;75314;-66
2024/03/22 00:27:57;;;;;;;34.60;24.50;;;;;;;5.83;82.66;101523.02;104512;1258;139438;-65
2024/03/22 00:30:24;;;;;;;41.50;25.50;;;;;;;5.81;82.65;101517.38;104691;1261;71792;-66
2024/03/22 00:32:50;;;;;;;38.90;24.20;;;;;;;5.79;82.71;101516.54;104713;1257;62147;-66
2024/03/22 00:35:17;;;;;;;37.70;24.90;;;;;;;5.78;82.76;101510.57;104777;1260;138944;-66
2024/03/22 00:37:44;;;;;;;41.70;24.60;;;;;;;5.76;82.75;101508.88;104703;1258;76670;-66
2024/03/22 00:40:11;;;;;;;33.80;24.40;;;;;;;5.75;82.78;101506.01;104661;1262;140043;-67
2024/03/22 00:42:37;;;;;;;35.80;25.10;;;;;;;5.74;82.76;101500.03;104626;1260;72825;-67
2024/03/22 00:45:05;;;;;;;34.00;23.30;;;;;;;5.72;82.77;101502.72;104592;1264;62128;-68
2024/03/22 00:47:31;;;;;;;40.10;25.30;;;;;;;5.70;82.79;101504.55;104723;1269;61779;-67
2024/03/22 00:49:58;;;;;;;37.60;24.20;;;;;;;5.68;82.83;101501.29;104759;1257;76454;-67
2024/03/22 00:52:25;;;;;;;35.20;23.60;;;;;;;5.63;82.75;101507.83;104719;1259;138515;-68
2024/03/22 00:54:51;;;;;;;38.90;24.90;;;;;;;5.59;82.73;101504.63;104804;1259;72075;-67
2024/03/22 00:57:18;;;;;;;39.20;24.70;;;;;;;5.53;82.63;101501.48;104789;1260;138662;-67
2024/03/22 00:59:45;;;;;;;37.30;24.90;;;;;;;5.48;82.64;101498.20;104866;1263;62038;-67
2024/03/22 01:02:11;;;;;;;38.70;23.30;;;;;;;5.42;82.70;101494.08;104744;1259;75390;-67
2024/03/22 01:04:38;;;;;;;38.20;23.90;;;;;;;5.39;82.76;101495.28;104769;1257;138705;-64
2024/03/22 01:07:04;;;;;;;38.60;24.90;;;;;;;5.35;82.81;101495.93;104978;1258;73675;-67
2024/03/22 01:09:31;;;;;;;37.00;23.70;;;;;;;5.34;83.01;101500.73;104909;1260;138948;-66
2024/03/22 01:11:58;;;;;;;38.90;24.80;;;;;;;5.34;83.08;101501.95;104733;1264;62226;-67
2024/03/22 01:14:24;;;;;;;37.70;24.30;;;;;;;5.35;83.20;101506.34;104882;1261;79132;-67
2024/03/22 01:16:51;;;;;;;35.60;23.50;;;;;;;5.34;83.18;101505.44;104544;1262;139222;-66
2024/03/22 01:19:18;;;;;;;37.30;23.50;;;;;;;5.34;83.10;101502.64;104719;1257;71854;-66
2024/03/22 01:21:44;;;;;;;37.70;23.50;;;;;;;5.35;83.27;101502.19;104695;1257;139276;-67
2024/03/22 01:24:11;;;;;;;38.10;24.00;;;;;;;5.36;83.27;101497.36;104847;1260;62252;-66
2024/03/22 01:26:37;;;;;;;38.60;24.40;;;;;;;5.35;83.20;101498.34;104676;1264;62013;-66
2024/03/22 01:29:04;;;;;;;35.80;24.30;;;;;;;5.34;83.30;101494.98;105485;1260;138923;-67
2024/03/22 01:31:31;;;;;;;41.50;25.80;;;;;;;5.32;83.17;101499.91;104794;1262;72638;-68
2024/03/22 01:33:57;;;;;;;39.30;25.10;;;;;;;5.31;83.20;101501.61;104745;1257;138851;-67
2024/03/22 01:36:24;;;;;;;37.00;23.40;;;;;;;5.30;83.21;101500.67;104794;1258;62093;-66
2024/03/22 01:38:50;;;;;;;36.70;23.90;;;;;;;5.29;83.17;101498.15;104878;1257;74684;-66
2024/03/22 01:41:17;;;;;;;42.80;25.00;;;;;;;5.24;83.17;101495.45;104896;1260;139123;-66
2024/03/22 01:43:44;;;;;;;34.90;23.80;;;;;;;5.18;83.16;101493.03;104894;1257;73508;-66
2024/03/22 01:46:11;;;;;;;37.30;24.60;;;;;;;5.12;83.05;101491.61;104687;1258;139265;-67
2024/03/22 01:48:37;;;;;;;39.40;25.50;;;;;;;5.05;83.04;101489.81;104697;1257;62179;-67
2024/03/22 01:51:04;;;;;;;43.00;24.90;;;;;;;4.99;82.98;101478.69;104699;1258;73646;-67
2024/03/22 01:53:32;;;;;;;39.80;25.80;;;;;;;4.93;83.07;101482.50;104755;1258;65535;-67
2024/03/22 01:55:59;;;;;;;39.10;24.70;;;;;;;4.84;83.01;101481.48;104750;1258;70759;-67
2024/03/22 01:58:25;;;;;;;41.70;25.80;;;;;;;4.76;83.12;101481.50;104772;1260;139472;-67
2024/03/22 02:00:52;;;;;;;41.50;25.70;;;;;;;4.68;83.07;101480.34;104749;1257;62097;-66
2024/03/22 02:03:19;;;;;;;38.10;24.80;;;;;;;4.61;83.13;101480.59;104605;1257;139198;-66
2024/03/22 02:05:45;;;;;;;38.20;25.10;;;;;;;4.55;83.20;101478.30;105038;1257;65692;-66
2024/03/22 02:08:12;;;;;;;44.00;26.00;;;;;;;4.50;83.40;101475.38;104779;1262;72189;-66
2024/03/22 02:10:38;;;;;;;37.60;24.50;;;;;;;4.47;83.53;101474.55;104831;1257;138833;-66
2024/03/22 02:13:05;;;;;;;38.90;24.30;;;;;;;4.46;83.60;101473.23;104669;1262;60933;-66
2024/03/22 02:15:32;;;;;;;35.30;24.30;;;;;;;4.45;83.68;101468.52;104575;1257;139243;-66
2024/03/22 02:17:58;;;;;;;37.00;23.90;;;;;;;4.46;83.85;101464.42;104699;1260;66988;-66
2024/03/22 02:20:25;;;;;;;37.90;24.90;;;;;;;4.48;83.92;101458.78;104680;1258;70619;-66
2024/03/22 02:22:52;;;;;;;43.40;26.30;;;;;;;4.50;84.05;101454.37;104802;1261;139074;-66
2024/03/22 02:25:18;;;;;;;40.40;26.50;;;;;;;4.52;84.10;101457.44;104880;1257;62067;-66
2024/03/22 02:27:45;;;;;;;37.10;23.70;;;;;;;4.53;84.14;101454.00;104608;1258;139440;-65
2024/03/22 02:30:12;;;;;;;40.50;25.50;;;;;;;4.53;84.05;101449.14;104708;1261;66538;-65
2024/03/22 02:32:40;;;;;;;36.70;23.50;;;;;;;4.53;84.05;101439.63;104745;1257;72154;-65
2024/03/22 02:35:07;;;;;;;42.30;25.40;;;;;;;4.56;84.12;101430.90;104785;1260;139072;-65
2024/03/22 02:37:33;;;;;;;41.70;31.50;;;;;;;4.58;84.13;101434.35;104796;1258;62173;-65
2024/03/22 02:40:00;;;;;;;45.70;32.20;;;;;;;4.61;84.22;101432.11;104655;1257;139290;-65
2024/03/22 02:42:27;;;;;;;41.20;28.30;;;;;;;4.63;84.09;101426.14;104598;1261;66698;-68
2024/03/22 02:44:53;;;;;;;42.90;26.90;;;;;;;4.65;84.14;101425.04;104737;1257;71918;-68
2024/03/22 02:47:20;;;;;;;39.10;25.40;;;;;;;4.66;84.10;101421.27;104762;1257;140377;-67
2024/03/22 02:49:46;;;;;;;36.70;25.90;;;;;;;4.68;84.07;101418.78;104922;1258;61998;-68
2024/03/22 02:52:13;;;;;;;37.10;25.10;;;;;;;4.72;84.22;101418.81;104747;1257;138737;-68
2024/03/22 02:54:40;;;;;;;46.10;27.00;;;;;;;4.72;84.11;101419.54;104754;1263;66688;-67
2024/03/22 02:57:07;;;;;;;37.50;24.40;;;;;;;4.71;83.97;101416.71;104755;1262;139351;-67
2024/03/22 02:59:34;;;;;;;37.00;25.00;;;;;;;4.72;83.95;101415.52;104836;1260;62147;-67
2024/03/22 03:02:00;;;;;;;37.30;24.70;;;;;;;4.74;84.02;101415.63;104709;1257;61977;-67
2024/03/22 03:04:27;;;;;;;41.20;25.10;;;;;;;4.76;84.12;101421.51;104660;1257;138699;-66
2024/03/22 03:06:53;;;;;;;41.30;26.70;;;;;;;4.77;83.96;101418.44;104812;1258;67225;-66
2024/03/22 03:09:20;;;;;;;41.50;25.90;;;;;;;4.79;84.14;101416.63;104551;1261;139055;-65
2024/03/22 03:11:47;;;;;;;43.00;26.50;;;;;;;4.81;84.18;101415.55;104875;1257;62162;-65
2024/03/22 03:14:13;;;;;;;35.10;23.90;;;;;;;4.82;84.05;101413.02;104874;1260;62193;-67
2024/03/22 03:16:40;;;;;;;37.70;25.00;;;;;;;4.83;84.08;101417.39;104793;1256;138927;-67
2024/03/22 03:19:06;;;;;;;39.10;23.60;;;;;;;4.83;84.11;101415.99;104765;1260;65558;-66
2024/03/22 03:21:33;;;;;;;38.10;23.80;;;;;;;4.84;84.18;101415.56;104819;1259;139134;-67
2024/03/22 03:24:00;;;;;;;39.50;23.90;;;;;;;4.85;84.21;101407.80;104774;1258;62045;-67
2024/03/22 03:26:26;;;;;;;36.90;23.90;;;;;;;4.88;84.22;101401.85;104844;1256;62159;-67
2024/03/22 03:28:55;;;;;;;33.90;23.80;;;;;;;4.90;84.25;101396.39;104809;1260;139267;-66
2024/03/22 03:31:21;;;;;;;34.80;23.10;;;;;;;4.90;84.24;101394.67;104837;1258;67328;-67
2024/03/22 03:33:48;;;;;;;36.00;23.10;;;;;;;4.91;84.19;101391.77;104767;1257;138868;-66
2024/03/22 03:36:14;;;;;;;33.30;23.60;;;;;;;4.93;84.21;101394.80;104978;1260;62051;-67
2024/03/22 03:38:41;;;;;;;34.40;22.80;;;;;;;4.93;84.24;101396.39;104796;1263;61410;-67
2024/03/22 03:41:08;;;;;;;39.30;24.20;;;;;;;4.92;84.20;101395.31;104816;1256;140101;-66
2024/03/22 03:43:34;;;;;;;36.90;24.10;;;;;;;4.91;84.13;101392.11;104834;1257;68104;-67
2024/03/22 03:46:01;;;;;;;38.10;24.20;;;;;;;4.91;84.28;101391.41;104737;1260;138678;-66
2024/03/22 03:48:27;;;;;;;37.30;24.80;;;;;;;4.90;84.24;101390.48;104784;1257;62079;-67
2024/03/22 03:50:54;;;;;;;33.70;23.50;;;;;;;4.89;84.19;101393.21;104820;1260;62118;-67
2024/03/22 03:53:21;;;;;;;37.30;24.00;;;;;;;4.87;84.24;101391.41;105385;1260;138744;-67
2024/03/22 03:55:48;;;;;;;36.80;23.30;;;;;;;4.86;84.36;101387.34;104658;1262;66729;-66
2024/03/22 03:58:16;;;;;;;33.70;22.80;;;;;;;4.89;84.35;101387.31;104635;1257;138915;-66
2024/03/22 04:00:42;;;;;;;37.00;23.90;;;;;;;4.92;84.50;101386.28;104826;1257;62511;-66
2024/03/22 04:03:09;;;;;;;36.10;22.70;;;;;;;4.95;84.53;101383.96;104684;1257;138889;-65
2024/03/22 04:05:35;;;;;;;35.80;23.60;;;;;;;4.95;84.54;101380.19;104850;1257;75888;-66
2024/03/22 04:08:02;;;;;;;33.40;22.10;;;;;;;4.98;84.52;101375.30;104902;1257;66567;-65
2024/03/22 04:10:29;;;;;;;33.10;22.00;;;;;;;4.99;84.60;101373.31;105283;1256;139052;-66
2024/03/22 04:12:56;;;;;;;38.30;23.30;;;;;;;5.03;84.57;101371.26;104723;1259;62165;-66
2024/03/22 04:15:22;;;;;;;36.60;23.20;;;;;;;5.08;84.68;101371.01;104719;1257;140032;-67
2024/03/22 04:17:49;;;;;;;34.90;21.80;;;;;;;5.13;84.67;101372.67;104710;1260;74632;-66
2024/03/22 04:20:15;;;;;;;33.20;22.10;;;;;;;5.16;84.62;101372.67;104733;1257;64885;-66
2024/03/22 04:22:42;;;;;;;34.50;23.30;;;;;;;5.18;84.63;101368.64;105333;1257;140008;-67
2024/03/22 04:25:08;;;;;;;35.90;22.10;;;;;;;5.21;84.58;101367.77;104907;1260;62153;-66
2024/03/22 04:27:39;;;;;;;36.80;23.40;;;;;;;5.26;84.62;101365.42;104539;1256;139036;-66
2024/03/22 04:30:06;;;;;;;32.10;21.10;;;;;;;5.29;84.55;101366.43;105210;1257;75112;-67
2024/03/22 04:32:33;;;;;;;28.60;19.60;;;;;;;5.33;84.62;101368.92;105716;1260;67315;-67
2024/03/22 04:35:00;;;;;;;29.20;19.60;;;;;;;5.38;84.65;101365.02;104710;1260;140195;-67
2024/03/22 04:37:26;;;;;;;30.30;20.40;;;;;;;5.43;84.59;101361.82;106623;1257;62167;-67
2024/03/22 04:39:53;;;;;;;26.10;19.80;;;;;;;5.48;84.49;101357.56;104802;1258;138703;-67
2024/03/22 04:42:20;;;;;;;25.70;18.40;;;;;;;5.50;84.40;101356.12;104730;1260;74299;-67
2024/03/22 04:44:46;;;;;;;26.00;19.00;;;;;;;5.54;84.45;101357.05;104828;1256;65769;-67
2024/03/22 04:47:13;;;;;;;26.20;18.90;;;;;;;5.56;84.39;101352.98;104642;1256;138980;-67
2024/03/22 04:49:40;;;;;;;26.70;18.50;;;;;;;5.58;84.30;101351.50;104766;1259;62183;-66
2024/03/22 04:52:06;;;;;;;24.30;17.30;;;;;;;5.61;84.37;101352.90;104570;1262;138972;-66
2024/03/22 04:54:33;;;;;;;26.50;18.60;;;;;;;5.63;84.29;101344.67;104876;1260;61948;-67
2024/03/22 04:56:59;;;;;;;26.10;18.40;;;;;;;5.66;84.29;101340.27;104861;1260;62041;-67
2024/03/22 04:59:26;;;;;;;27.30;18.30;;;;;;;5.71;84.28;101341.05;104840;1256;138843;-67
2024/03/22 05:01:53;;;;;;;25.20;18.00;;;;;;;5.74;84.27;101340.72;104851;1259;62041;-66
2024/03/22 05:04:20;;;;;;;28.20;18.80;;;;;;;5.79;84.29;101343.22;105759;1259;138961;-67
2024/03/22 05:06:46;;;;;;;29.20;20.00;;;;;;;5.82;84.23;101341.31;104622;1264;75656;-68
2024/03/22 05:09:13;;;;;;;29.00;19.80;;;;;;;5.85;84.17;101341.30;104587;1258;138879;-66
2024/03/22 05:11:39;;;;;;;31.60;20.50;;;;;;;5.90;84.24;101344.50;104703;1258;73024;-67
2024/03/22 05:14:06;;;;;;;30.50;20.60;;;;;;;5.94;84.19;101346.46;104730;1256;62122;-65
2024/03/22 05:16:33;;;;;;;33.80;22.80;;;;;;;5.96;84.05;101345.08;104642;1260;138974;-65
2024/03/22 05:18:59;;;;;;;41.60;25.70;;;;;;;5.98;83.99;101344.27;105054;1257;76413;-65
2024/03/22 05:21:26;;;;;;;37.10;25.90;;;;;;;6.03;84.06;101343.86;105454;1256;138302;-65
2024/03/22 05:23:53;;;;;;;39.60;25.30;;;;;;;6.06;84.05;101347.67;109037;1256;72758;-66
2024/03/22 05:26:20;;;;;;;35.90;24.10;;;;;;;6.11;84.02;101347.58;109008;1256;59704;-67
2024/03/22 05:28:47;;;;;;;35.70;23.50;;;;;;;6.14;84.00;101340.79;106169;1256;140564;-66
2024/03/22 05:31:14;;;;;;;31.90;22.20;;;;;;;6.18;83.96;101336.30;104751;1256;76011;-62
2024/03/22 05:33:40;;;;;;;31.10;20.90;;;;;;;6.25;84.05;101332.46;104865;1257;139490;-64
2024/03/22 05:36:07;;;;;;;33.10;21.60;;;;;;;6.32;83.95;101333.33;104741;1256;74324;-63
2024/03/22 05:38:34;;;;;;;30.30;22.50;;;;;;;6.34;83.75;101333.60;104786;1262;62098;-63
2024/03/22 05:41:04;;;;;;;34.80;23.40;;;;;;;6.37;83.72;101328.21;104578;1259;138819;-64
2024/03/22 05:43:31;;;;;;;31.60;21.20;;;;;;;6.41;83.74;101322.67;108717;1255;76331;-64
2024/03/22 05:45:57;;;;;;;31.90;21.50;;;;;;;6.49;83.71;101320.92;104702;1260;138760;-63
2024/03/22 05:48:24;;;;;;;35.70;22.00;;;;;;;6.54;83.56;101317.88;104903;1256;73337;-63
2024/03/22 05:50:50;;;;;;;34.90;22.80;;;;;;;6.53;83.38;101315.77;104854;1259;62045;-63
2024/03/22 05:53:17;;;;;;;31.30;22.30;;;;;;;6.54;83.36;101310.59;104774;1256;139240;-64
2024/03/22 05:55:43;;;;;;;32.50;21.40;;;;;;;6.60;83.37;101309.29;104841;1256;73553;-65
2024/03/22 05:58:10;;;;;;;31.50;21.80;;;;;;;6.63;83.42;101305.11;104841;1259;139423;-64
2024/03/22 06:00:37;;;;;;;31.40;21.20;;;;;;;6.68;83.37;101303.77;104865;1257;72978;-64
2024/03/22 06:03:04;;;;;;;32.30;22.20;;;;;;;6.72;83.25;101305.52;107859;1259;62186;-67
2024/03/22 06:05:33;;;;;;;33.00;21.50;;;;;;;6.80;83.36;101301.03;106354;1257;62037;-66
2024/03/22 06:07:59;;;;;;;35.60;23.00;;;;;;;6.89;83.36;101299.04;104818;1260;76207;-67
2024/03/22 06:10:26;;;;;;;31.10;22.00;;;;;;;6.98;83.29;101295.65;104772;1257;138272;-67
2024/03/22 06:12:53;;;;;;;33.70;20.80;;;;;;;7.04;83.10;101296.61;104805;1256;73693;-67
2024/03/22 06:15:21;;;;;;;31.70;20.70;;;;;;;7.07;83.01;101293.59;104745;1255;139013;-68
2024/03/22 06:17:48;;;;;;;29.30;20.80;;;;;;;7.09;82.88;101288.84;104868;1256;62142;-67
2024/03/22 06:20:14;;;;;;;28.00;19.30;;;;;;;7.08;82.75;101286.86;104879;1257;74644;-67
2024/03/22 06:22:41;;;;;;;26.30;18.80;;;;;;;7.10;82.79;101283.45;104613;1257;138752;-67
2024/03/22 06:25:08;;;;;;;27.30;18.40;;;;;;;7.12;82.78;101280.41;104815;1261;72102;-67
2024/03/22 06:27:34;;;;;;;38.10;20.60;;;;;;;7.16;82.73;101273.81;104723;1256;139376;-67
2024/03/22 06:30:01;;;;;;;27.60;18.20;;;;;;;7.16;82.64;101274.34;104737;1256;61992;-66
2024/03/22 06:32:28;;;;;;;32.30;19.00;;;;;;;7.15;82.47;101271.83;104890;1260;75856;-66
2024/03/22 06:34:54;;;;;;;26.00;19.70;;;;;;;7.14;82.49;101267.77;104713;1260;139213;-66
2024/03/22 06:37:21;;;;;;;29.20;20.00;;;;;;;7.14;82.45;101265.69;104549;1262;73781;-67
2024/03/22 06:39:48;;;;;;;26.00;18.30;;;;;;;7.18;82.56;101266.56;104560;1260;138316;-66
2024/03/22 06:42:14;;;;;;;30.90;18.70;;;;;;;7.18;82.46;101265.88;104634;1259;62170;-67
2024/03/22 06:44:41;;;;;;;28.90;19.80;;;;;;;7.20;82.55;101271.53;104482;1257;76192;-67
2024/03/22 06:47:08;;;;;;;28.00;18.50;;;;;;;7.23;82.59;101270.80;104521;1260;138408;-67
2024/03/22 06:49:34;;;;;;;27.50;18.80;;;;;;;7.29;82.67;101265.11;104544;1258;73328;-67
2024/03/22 06:52:01;;;;;;;26.70;18.60;;;;;;;7.33;82.50;101266.04;104595;1261;139040;-67
2024/03/22 06:54:27;;;;;;;25.90;18.00;;;;;;;7.35;82.44;101260.36;104689;1258;62115;-67
2024/03/22 06:56:54;;;;;;;25.10;18.40;;;;;;;7.38;82.41;101261.38;104663;1257;76104;-67
2024/03/22 06:59:21;;;;;;;24.10;18.00;;;;;;;7.43;82.56;101266.83;104604;1258;138912;-67
2024/03/22 07:01:47;;;;;;;24.50;17.30;;;;;;;7.49;82.58;101260.30;104696;1256;72095;-67
2024/03/22 07:04:14;;;;;;;26.60;17.80;;;;;;;7.55;82.61;101255.33;104730;1261;138663;-67
2024/03/22 07:06:42;;;;;;;21.00;16.80;;;;;;;7.58;82.38;101243.61;104891;1258;62067;-67
2024/03/22 07:09:08;;;;;;;22.10;16.60;;;;;;;7.58;82.29;101238.73;104814;1257;138909;-67
2024/03/22 07:11:35;;;;;;;22.10;17.00;;;;;;;7.56;82.19;101231.48;104706;1260;67586;-68
2024/03/22 07:14:02;;;;;;;21.80;16.30;;;;;;;7.55;82.22;101228.63;104906;1260;73009;-67
2024/03/22 07:16:28;;;;;;;21.20;16.10;;;;;;;7.53;82.25;101222.23;104727;1260;138676;-67
2024/03/22 07:18:55;;;;;;;21.60;16.10;;;;;;;7.51;82.22;101222.69;104781;1257;62202;-67
2024/03/22 07:21:21;;;;;;;22.30;17.00;;;;;;;7.51;82.25;101225.66;104795;1262;138347;-67
2024/03/22 07:23:48;;;;;;;24.00;17.30;;;;;;;7.52;82.33;101227.10;104850;1257;65317;-68
2024/03/22 07:26:14;;;;;;;21.00;16.30;;;;;;;7.54;82.35;101222.82;104856;1259;62061;-68
2024/03/22 07:28:41;;;;;;;22.30;16.90;;;;;;;7.58;82.30;101219.52;104782;1256;138846;-67
2024/03/22 07:31:08;;;;;;;22.40;16.60;;;;;;;7.62;82.43;101219.30;104845;1256;62055;-67
2024/03/22 07:33:34;;;;;;;21.30;16.00;;;;;;;7.63;82.33;101214.84;104824;1260;139215;-67
2024/03/22 07:36:04;;;;;;;21.90;16.10;;;;;;;7.64;82.19;101210.14;104790;1256;64673;-67
2024/03/22 07:38:31;;;;;;;22.80;15.80;;;;;;;7.60;82.14;101207.02;108943;1256;71499;-68
2024/03/22 07:40:57;;;;;;;22.40;15.90;;;;;;;7.55;82.02;101205.04;105507;1256;139236;-68
2024/03/22 07:43:24;;;;;;;19.20;15.70;;;;;;;7.52;82.14;101200.01;104850;1260;62033;-67
2024/03/22 07:45:50;;;;;;;23.00;17.20;;;;;;;7.52;82.21;101199.84;104746;1258;139407;-68
2024/03/22 07:48:17;;;;;;;20.50;14.90;;;;;;;7.55;82.27;101199.27;104841;1256;66048;-68
2024/03/22 07:50:44;;;;;;;19.90;15.10;;;;;;;7.56;82.26;101199.17;104863;1259;72351;-67
2024/03/22 07:53:10;;;;;;;20.10;14.30;;;;;;;7.54;82.20;101196.27;104694;1260;138696;-67
2024/03/22 07:55:37;;;;;;;21.10;15.70;;;;;;;7.57;82.44;101195.89;104864;1259;61995;-68
2024/03/22 07:58:04;;;;;;;19.30;14.50;;;;;;;7.66;82.52;101193.12;104830;1260;138717;-67
2024/03/22 08:00:31;;;;;;;17.90;15.10;;;;;;;7.72;82.55;101185.73;104909;1256;66903;-67
2024/03/22 08:02:57;;;;;;;20.30;15.60;;;;;;;7.73;82.31;101182.45;104872;1260;73936;-67
2024/03/22 08:05:24;;;;;;;21.00;15.40;;;;;;;7.70;82.16;101183.87;104672;1262;138477;-66
2024/03/22 08:07:51;;;;;;;22.60;16.70;;;;;;;7.70;82.30;101174.77;104919;1256;62070;-67
2024/03/22 08:10:17;;;;;;;20.40;16.40;;;;;;;7.78;82.56;101170.79;104758;1258;138083;-67
2024/03/22 08:12:44;;;;;;;20.00;15.50;;;;;;;7.86;82.53;101162.55;104932;1259;66810;-67
2024/03/22 08:15:11;;;;;;;20.30;15.20;;;;;;;7.92;82.52;101165.08;104667;1262;139816;-66
2024/03/22 08:17:37;;;;;;;18.60;14.30;;;;;;;7.98;82.45;101161.29;104764;1262;62066;-67
2024/03/22 08:20:05;;;;;;;24.10;15.70;;;;;;;8.01;82.17;101160.02;104706;1257;62001;-67
2024/03/22 08:22:31;;;;;;;21.10;16.00;;;;;;;8.05;82.23;101159.81;106505;1259;139129;-67
2024/03/22 08:25:00;;;;;;;18.10;14.00;;;;;;;8.13;82.33;101152.48;104792;1260;65659;-68
2024/03/22 08:27:27;;;;;;;19.70;14.60;;;;;;;8.23;82.30;101154.27;106410;1258;139358;-67
2024/03/22 08:29:53;;;;;;;18.70;15.00;;;;;;;8.28;82.22;101151.52;104753;1257;62145;-68
2024/03/22 08:32:20;;;;;;;21.90;15.70;;;;;;;8.36;82.34;101145.39;104780;1257;62116;-67
2024/03/22 08:34:47;;;;;;;18.10;15.30;;;;;;;8.49;82.39;101138.39;104747;1256;138805;-67
2024/03/22 08:37:13;;;;;;;20.80;16.00;;;;;;;8.60;82.18;101140.05;104487;1256;302303;-68
2024/03/22 08:39:40;;;;;;;19.40;14.80;;;;;;;8.70;82.03;101140.60;104764;1256;139222;-67
2024/03/22 08:42:09;;;;;;;20.90;15.90;;;;;;;8.81;81.98;101130.20;104882;1256;61265;-67
2024/03/22 08:44:35;;;;;;;19.10;15.20;;;;;;;8.93;81.98;101120.66;105854;1256;62093;-67
2024/03/22 08:47:02;;;;;;;20.60;16.30;;;;;;;9.11;81.97;101112.93;104808;1256;138141;-67
2024/03/22 08:49:30;;;;;;;21.60;17.50;;;;;;;9.23;81.73;101106.36;105005;1260;67124;-67
2024/03/22 08:51:56;;;;;;;21.50;17.20;;;;;;;9.30;81.50;101101.70;105718;1259;138532;-67
2024/03/22 08:54:23;;;;;;;20.00;14.80;;;;;;;9.40;81.45;101096.27;104838;1257;62586;-66
2024/03/22 08:56:49;;;;;;;19.80;15.70;;;;;;;9.50;81.15;101092.98;104852;1259;62127;-67
2024/03/22 08:59:16;;;;;;;19.20;15.40;;;;;;;9.54;80.93;101089.09;104740;1256;138839;-67
2024/03/22 09:01:43;;;;;;;21.30;16.60;;;;;;;9.60;80.75;101086.83;104846;1260;65662;-67
2024/03/22 09:04:09;;;;;;;20.20;16.20;;;;;;;9.73;80.85;101085.67;104697;1256;138759;-67
2024/03/22 09:06:36;;;;;;;20.80;17.10;;;;;;;9.89;80.88;101078.85;104877;1256;62122;-66
2024/03/22 09:09:03;;;;;;;21.80;18.60;;;;;;;10.09;80.77;101077.04;104969;1260;62407;-67
2024/03/22 09:11:30;;;;;;;24.20;20.20;;;;;;;10.29;80.60;101073.28;106275;1257;138823;-67
2024/03/22 09:13:56;;;;;;;25.40;18.90;;;;;;;10.51;80.32;101068.02;105087;1260;67186;-67
2024/03/22 09:16:23;;;;;;;27.70;20.50;;;;;;;10.63;79.79;101063.66;104725;1257;138302;-67
2024/03/22 09:18:50;;;;;;;26.50;21.10;;;;;;;10.62;79.28;101060.66;104966;1256;62055;-67
2024/03/22 09:21:16;;;;;;;24.40;20.30;;;;;;;10.57;79.05;101050.30;104810;1260;138577;-67
2024/03/22 09:23:43;;;;;;;27.50;19.30;;;;;;;10.50;78.76;101039.76;104966;1260;75326;-67
2024/03/22 09:26:09;;;;;;;28.60;22.10;;;;;;;10.49;78.79;101037.96;104878;1258;66134;-68
2024/03/22 09:28:36;;;;;;;27.10;22.00;;;;;;;10.49;78.76;101030.23;104800;1256;138142;-68
2024/03/22 09:31:06;;;;;;;28.50;22.80;;;;;;;10.55;78.80;101024.98;104955;1260;62103;-68
2024/03/22 09:33:34;;;;;;;29.30;23.00;;;;;;;10.62;78.65;101015.36;104803;1260;139598;-68
2024/03/22 09:36:00;;;;;;;27.90;23.00;;;;;;;10.72;78.64;101013.71;104941;1259;75103;-68
2024/03/22 09:38:28;;;;;;;29.10;22.80;;;;;;;10.83;78.69;101010.69;108987;1256;66576;-67
2024/03/22 09:40:55;;;;;;;26.90;21.80;;;;;;;10.99;78.74;101005.71;104930;1260;138453;-67
2024/03/22 09:43:21;;;;;;;26.60;20.10;;;;;;;11.14;78.57;100996.42;104893;1258;62141;-67
2024/03/22 09:45:49;;;;;;;24.50;19.70;;;;;;;11.28;78.33;100994.86;104656;1257;138556;-67
2024/03/22 09:48:19;;;;;;;26.00;20.80;;;;;;;11.31;77.84;100989.85;106700;1257;73544;-67
2024/03/22 09:50:47;;;;;;;26.00;20.00;;;;;;;11.24;77.54;100998.98;104848;1261;66852;-67
2024/03/22 09:53:18;;;;;;;26.60;20.80;;;;;;;11.15;77.31;100991.55;104572;1256;138916;-67
2024/03/22 09:55:46;;;;;;;24.90;20.10;;;;;;;10.94;76.88;100988.51;104801;1256;62109;-67
2024/03/22 09:58:12;;;;;;;24.00;19.80;;;;;;;10.75;76.89;100986.77;104819;1260;138269;-67
2024/03/22 10:00:40;;;;;;;25.20;20.40;;;;;;;10.54;76.77;100977.59;104852;1256;76124;-67
2024/03/22 10:03:06;;;;;;;28.00;22.10;;;;;;;10.34;76.97;100978.92;104716;1256;138746;-67
2024/03/22 10:05:33;;;;;;;25.70;21.00;;;;;;;10.20;77.21;100977.77;105698;1256;72351;-68
2024/03/22 10:07:59;;;;;;;25.50;20.50;;;;;;;10.07;77.42;100972.83;104806;1257;68621;-68
2024/03/22 10:10:26;;;;;;;23.10;19.30;;;;;;;9.92;77.35;100971.33;104719;1256;139026;-68
2024/03/22 10:12:53;;;;;;;24.60;21.30;;;;;;;9.78;77.60;100967.52;104715;1256;76370;-67
2024/03/22 10:15:20;;;;;;;27.40;21.20;;;;;;;9.69;77.87;100966.04;104870;1258;138966;-67
2024/03/22 10:17:46;;;;;;;26.90;21.30;;;;;;;9.71;78.39;100966.11;104871;1257;73620;-63
2024/03/22 10:20:13;;;;;;;24.80;21.20;;;;;;;9.81;78.72;100961.48;104781;1258;62165;-63
2024/03/22 10:22:43;;;;;;;24.40;19.80;;;;;;;9.90;78.83;100954.08;107390;1257;138450;-63
2024/03/22 10:25:10;;;;;;;24.20;21.40;;;;;;;9.98;78.78;100954.31;108833;1257;76101;-64
2024/03/22 10:27:42;;;;;;;32.40;21.20;;;;;;;9.98;78.69;100951.00;108855;1257;138291;-64
2024/03/22 10:30:10;;;;;;;24.40;20.10;;;;;;;9.91;78.53;100947.80;107325;1257;72752;-63
2024/03/22 10:32:37;;;;;;;25.70;21.60;;;;;;;9.79;78.40;100947.23;108835;1258;59864;-64
2024/03/22 10:35:06;;;;;;;28.30;23.00;;;;;;;9.70;78.49;100946.62;108835;1256;138716;-64
2024/03/22 10:37:36;;;;;;;27.00;22.00;;;;;;;9.69;78.77;100951.86;108877;1257;73097;-64
2024/03/22 10:40:07;;;;;;;24.80;21.50;;;;;;;9.69;78.92;100955.02;108732;1258;139404;-64
2024/03/22 10:42:34;;;;;;;27.30;21.00;;;;;;;9.70;79.03;100949.43;108972;1257;71372;-64
2024/03/22 10:45:02;;;;;;;27.50;21.70;;;;;;;9.74;79.17;100940.44;108891;1257;60501;-64
2024/03/22 10:47:30;;;;;;;26.40;21.80;;;;;;;9.80;79.33;100929.90;108816;1257;139035;-64
2024/03/22 10:50:05;;;;;;;27.00;21.50;;;;;;;9.82;79.33;100925.78;108982;1257;75567;-64
2024/03/22 10:52:34;;;;;;;24.70;20.10;;;;;;;9.83;79.31;100915.30;108751;1257;138946;-64
2024/03/22 10:55:02;;;;;;;22.80;19.40;;;;;;;9.82;79.24;100908.61;108815;1256;72723;-64
2024/03/22 10:57:29;;;;;;;24.80;20.50;;;;;;;9.87;79.36;100901.04;108726;1257;138953;-64
2024/03/22 10:59:56;;;;;;;23.90;20.10;;;;;;;9.98;79.43;100897.16;106219;1259;62193;-63
2024/03/22 11:02:25;;;;;;;25.70;21.60;;;;;;;10.07;79.42;100894.10;104701;1256;73780;-63